createdAt,value
2019-03-31T00:02:32.434Z,53.63
2019-03-31T00:05:00.965Z,46.40
2019-03-31T00:07:29.913Z,40.73
2019-03-31T00:16:43.857Z,43.47
2019-03-31T00:22:33.585Z,48.40
2019-03-31T00:25:02.824Z,55.33
2019-03-31T00:36:16.378Z,51.03
2019-03-31T00:38:45.216Z,47.43
2019-03-31T00:41:14.498Z,47.27
2019-03-31T00:43:42.982Z,47.87
2019-03-31T00:46:11.825Z,52.80
2019-03-31T00:48:41.009Z,52.73
2019-03-31T00:51:09.511Z,66.77
2019-03-31T00:53:38.355Z,71.17
2019-03-31T00:56:07.616Z,53.60
2019-03-31T01:08:27.929Z,42.13
2019-03-31T01:13:58.694Z,51.40
2019-03-31T01:17:07.755Z,45.37
2019-03-31T01:22:58.190Z,39.50
2019-03-31T01:26:06.803Z,43.93
2019-03-31T01:31:50.477Z,39.67
2019-03-31T01:34:19.025Z,36.40
2019-03-31T01:36:47.869Z,35.90
2019-03-31T01:42:37.375Z,39.17
2019-03-31T01:45:05.978Z,40.97
2019-03-31T01:47:34.075Z,37.77
2019-03-31T01:50:02.982Z,45.20
2019-03-31T01:52:32.070Z,37.87
2019-03-31T01:55:01.150Z,39.20
2019-03-31T01:57:30.376Z,38.70
2019-03-31T01:59:59.578Z,46.00
2019-03-31T02:02:29.095Z,41.67
2019-03-31T02:05:38.109Z,43.83
2019-03-31T02:13:48.778Z,36.07
2019-03-31T02:16:17.646Z,43.07
2019-03-31T02:18:46.558Z,37.37
2019-03-31T02:21:15.479Z,35.27
2019-03-31T02:23:44.250Z,37.50
2019-03-31T02:26:13.163Z,41.50
2019-03-31T02:32:03.032Z,39.47
2019-03-31T02:35:11.650Z,40.47
2019-03-31T02:37:40.758Z,44.87
2019-03-31T02:40:49.246Z,39.60
2019-03-31T02:43:18.349Z,39.57
2019-03-31T02:46:06.659Z,34.53
2019-03-31T02:54:41.716Z,38.63
2019-03-31T02:57:50.541Z,47.60
2019-03-31T03:00:19.105Z,41.30
2019-03-31T03:03:28.030Z,37.07
2019-03-31T03:05:56.814Z,41.93
2019-03-31T03:17:49.749Z,39.90
2019-03-31T03:20:18.274Z,42.83
2019-03-31T03:22:58.985Z,40.53
2019-03-31T03:25:28.172Z,42.70
2019-03-31T03:31:00.237Z,36.20
2019-03-31T03:33:39.766Z,44.13
2019-03-31T03:36:08.574Z,40.17
2019-03-31T03:38:37.661Z,46.40
2019-03-31T03:41:06.130Z,44.03
2019-03-31T03:43:53.641Z,37.40
2019-03-31T03:46:10.932Z,39.17
2019-03-31T03:49:19.993Z,46.57
2019-03-31T03:52:09.069Z,45.70
2019-03-31T03:57:38.457Z,43.93
2019-03-31T04:00:46.939Z,40.80
2019-03-31T04:03:46.301Z,41.30
2019-03-31T04:06:15.131Z,34.70
2019-03-31T04:08:43.997Z,42.80
2019-03-31T04:11:54.162Z,33.90
2019-03-31T04:14:23.278Z,39.27
2019-03-31T04:16:52.073Z,44.97
2019-03-31T04:19:21.122Z,41.97
2019-03-31T04:21:49.948Z,45.80
2019-03-31T04:24:19.176Z,41.10
2019-03-31T04:26:47.963Z,34.23
2019-03-31T04:29:16.830Z,41.27
2019-03-31T04:31:45.962Z,39.33
2019-03-31T04:34:15.080Z,35.90
2019-03-31T04:36:55.998Z,37.93
2019-03-31T04:39:25.211Z,40.87
2019-03-31T04:41:54.230Z,39.57
2019-03-31T04:44:22.755Z,33.60
2019-03-31T04:46:51.847Z,41.70
2019-03-31T04:49:19.563Z,38.83
2019-03-31T04:54:57.390Z,44.70
2019-03-31T04:57:26.192Z,43.70
2019-03-31T04:59:55.297Z,37.10
2019-03-31T05:02:26.979Z,43.40
2019-03-31T05:05:00.306Z,47.30
2019-03-31T05:07:40.926Z,44.47
2019-03-31T05:10:09.782Z,38.17
2019-03-31T05:15:59.165Z,39.43
2019-03-31T05:18:28.227Z,38.00
2019-03-31T05:20:57.368Z,41.90
2019-03-31T05:23:26.516Z,43.07
2019-03-31T05:29:16.645Z,45.50
2019-03-31T05:31:45.867Z,41.37
2019-03-31T05:34:19.429Z,39.93
2019-03-31T05:36:54.751Z,38.17
2019-03-31T05:39:34.733Z,43.57
2019-03-31T05:42:04.229Z,40.43
2019-03-31T05:44:33.064Z,39.87
2019-03-31T05:47:02.114Z,32.93
2019-03-31T05:49:31.314Z,43.13
2019-03-31T05:52:00.152Z,37.23
2019-03-31T05:54:29.044Z,39.97
2019-03-31T05:56:57.849Z,40.00
2019-03-31T05:59:26.970Z,41.80
2019-03-31T06:01:55.695Z,36.30
2019-03-31T06:04:33.056Z,38.70
2019-03-31T06:06:55.272Z,38.87
2019-03-31T06:09:24.397Z,41.83
2019-03-31T06:11:53.801Z,40.90
2019-03-31T06:14:23.195Z,35.63
2019-03-31T06:16:52.441Z,36.20
2019-03-31T06:19:21.600Z,37.97
2019-03-31T06:21:50.511Z,43.43
2019-03-31T06:24:19.011Z,80.67
2019-03-31T06:26:47.468Z,70.37
2019-03-31T06:29:16.250Z,51.47
2019-03-31T06:31:45.050Z,45.40
2019-03-31T06:34:13.434Z,44.90
2019-03-31T06:36:41.506Z,44.60
2019-03-31T06:39:10.605Z,41.10
2019-03-31T06:41:39.375Z,40.60
2019-03-31T06:44:07.382Z,37.57
2019-03-31T06:46:36.507Z,42.40
2019-03-31T06:49:04.975Z,43.47
2019-03-31T06:51:33.505Z,44.10
2019-03-31T06:54:02.466Z,46.17
2019-03-31T06:56:31.694Z,42.83
2019-03-31T06:59:00.429Z,39.83
2019-03-31T07:01:29.236Z,43.40
2019-03-31T07:03:58.376Z,40.83
2019-03-31T07:06:27.560Z,42.47
2019-03-31T07:08:56.692Z,45.27
2019-03-31T07:11:25.399Z,41.10
2019-03-31T07:13:54.646Z,40.17
2019-03-31T07:16:23.540Z,50.47
2019-03-31T07:18:52.712Z,41.90
2019-03-31T07:21:21.554Z,40.60
2019-03-31T07:23:50.033Z,42.40
2019-03-31T07:26:18.416Z,44.57
2019-03-31T07:28:46.867Z,42.57
2019-03-31T07:31:15.703Z,41.13
2019-03-31T07:33:44.483Z,48.70
2019-03-31T07:36:25.049Z,44.00
2019-03-31T07:39:33.965Z,44.63
2019-03-31T07:42:21.561Z,45.07
2019-03-31T07:45:30.043Z,43.53
2019-03-31T07:47:59.270Z,47.30
2019-03-31T07:50:46.969Z,42.10
2019-03-31T07:58:57.954Z,50.27
2019-03-31T08:01:26.122Z,62.77
2019-03-31T08:06:56.867Z,44.47
2019-03-31T08:10:05.745Z,46.87
2019-03-31T08:12:33.530Z,43.17
2019-03-31T08:15:01.993Z,45.37
2019-03-31T08:23:13.357Z,46.20
2019-03-31T08:25:42.661Z,45.63
2019-03-31T08:28:11.948Z,47.23
2019-03-31T08:31:20.834Z,47.50
2019-03-31T08:33:49.659Z,41.20
2019-03-31T08:39:21.150Z,44.83
2019-03-31T08:41:50.429Z,39.87
2019-03-31T08:44:19.211Z,35.23
2019-03-31T08:46:48.166Z,34.80
2019-03-31T08:49:56.654Z,38.37
2019-03-31T08:52:44.202Z,39.10
2019-03-31T08:55:13.544Z,39.87
2019-03-31T08:57:42.807Z,39.37
2019-03-31T09:00:51.867Z,38.20
2019-03-31T09:03:20.648Z,41.60
2019-03-31T09:09:31.519Z,36.50
2019-03-31T09:12:07.504Z,47.23
2019-03-31T09:14:36.214Z,38.33
2019-03-31T09:17:05.185Z,38.83
2019-03-31T09:19:34.327Z,34.60
2019-03-31T09:22:03.456Z,37.23
2019-03-31T09:24:32.226Z,41.23
2019-03-31T09:27:01.306Z,43.00
2019-03-31T09:29:29.406Z,44.77
2019-03-31T09:32:17.385Z,37.73
2019-03-31T09:37:54.915Z,34.27
2019-03-31T09:40:23.821Z,35.90
2019-03-31T09:43:11.737Z,32.30
2019-03-31T09:46:20.641Z,34.63
2019-03-31T09:49:00.654Z,33.57
2019-03-31T09:51:29.511Z,32.43
2019-03-31T10:00:00.882Z,29.20
2019-03-31T10:02:30.045Z,30.87
2019-03-31T10:04:59.187Z,29.10
2019-03-31T10:07:28.369Z,38.15
2019-03-31T10:09:57.105Z,40.85
2019-03-31T10:12:25.446Z,43.58
2019-03-31T10:14:54.796Z,35.17
2019-03-31T10:17:23.951Z,31.75
2019-03-31T10:19:52.075Z,39.90
2019-03-31T10:22:21.240Z,34.57
2019-03-31T10:24:50.136Z,43.17
2019-03-31T10:27:18.536Z,42.33
2019-03-31T10:29:47.564Z,38.53
2019-03-31T10:32:16.395Z,37.50
2019-03-31T10:34:44.899Z,41.20
2019-03-31T10:37:13.985Z,46.03
2019-03-31T10:39:42.788Z,44.50
2019-03-31T10:42:12.023Z,40.70
2019-03-31T10:44:40.436Z,45.53
2019-03-31T10:47:20.801Z,43.13
2019-03-31T10:49:50.060Z,40.13
2019-03-31T10:52:18.757Z,39.17
2019-03-31T10:54:48.032Z,36.77
2019-03-31T10:57:16.744Z,39.43
2019-03-31T10:59:45.287Z,134.83
2019-03-31T11:02:14.526Z,56.17
2019-03-31T11:08:23.091Z,38.10
2019-03-31T11:10:51.690Z,38.97
2019-03-31T11:13:20.842Z,41.30
2019-03-31T11:18:29.761Z,36.73
2019-03-31T11:23:40.076Z,36.77
2019-03-31T11:26:20.573Z,32.40
2019-03-31T11:28:49.468Z,35.13
2019-03-31T11:31:18.826Z,33.23
2019-03-31T11:36:49.046Z,32.97
2019-03-31T11:39:57.392Z,32.13
2019-03-31T11:42:26.561Z,33.37
2019-03-31T11:44:55.606Z,27.93
2019-03-31T11:50:26.192Z,27.03
2019-03-31T11:52:55.426Z,28.17
2019-03-31T11:55:24.489Z,26.70
2019-03-31T11:57:52.989Z,30.13
2019-03-31T12:03:43.245Z,31.30
2019-03-31T12:06:12.461Z,32.50
2019-03-31T12:08:41.336Z,34.60
2019-03-31T12:11:10.162Z,29.90
2019-03-31T12:13:39.235Z,36.33
2019-03-31T12:16:07.742Z,33.23
2019-03-31T12:18:36.483Z,29.93
2019-03-31T12:21:05.327Z,31.03
2019-03-31T12:23:34.227Z,28.47
2019-03-31T12:26:43.143Z,29.03
2019-03-31T12:29:11.929Z,27.00
2019-03-31T12:31:41.047Z,27.17
2019-03-31T12:34:09.860Z,27.53
2019-03-31T12:36:38.402Z,25.77
2019-03-31T12:42:28.744Z,25.47
2019-03-31T12:44:57.981Z,23.20
2019-03-31T12:50:27.967Z,29.27
2019-03-31T12:52:57.065Z,31.23
2019-03-31T12:55:26.012Z,27.30
2019-03-31T12:57:54.727Z,30.70
2019-03-31T13:00:23.520Z,38.83
2019-03-31T13:02:52.613Z,36.90
2019-03-31T13:05:21.861Z,59.20
2019-03-31T13:07:56.141Z,36.17
2019-03-31T13:10:26.400Z,42.10
2019-03-31T13:16:16.466Z,32.23
2019-03-31T13:19:25.423Z,31.77
2019-03-31T13:25:15.950Z,38.80
2019-03-31T13:27:44.846Z,31.83
2019-03-31T13:30:13.695Z,33.27
2019-03-31T13:33:22.630Z,33.17
2019-03-31T13:35:53.263Z,31.67
2019-03-31T13:38:22.171Z,27.70
2019-03-31T13:40:50.656Z,28.87
2019-03-31T13:43:27.949Z,30.37
2019-03-31T13:45:59.960Z,32.57
2019-03-31T13:49:07.100Z,29.83
2019-03-31T13:51:55.021Z,29.57
2019-03-31T13:54:43.083Z,31.73
2019-03-31T14:00:44.755Z,27.10
2019-03-31T14:03:14.058Z,29.63
2019-03-31T14:14:28.801Z,28.13
2019-03-31T14:16:58.041Z,28.60
2019-03-31T14:19:26.418Z,25.83
2019-03-31T14:21:55.578Z,24.30
2019-03-31T14:24:26.894Z,27.13
2019-03-31T14:30:02.867Z,25.43
2019-03-31T14:32:32.006Z,22.93
2019-03-31T14:35:00.516Z,23.13
2019-03-31T14:37:41.181Z,29.60
2019-03-31T14:40:50.144Z,24.87
2019-03-31T14:43:37.387Z,25.00
2019-03-31T14:46:46.474Z,23.47
2019-03-31T14:49:15.372Z,33.63
2019-03-31T14:52:27.668Z,30.67
2019-03-31T14:55:04.816Z,29.03
2019-03-31T14:57:33.702Z,20.40
2019-03-31T15:00:23.862Z,24.37
2019-03-31T15:02:52.426Z,20.07
2019-03-31T15:06:00.933Z,30.20
2019-03-31T15:08:53.751Z,22.97
2019-03-31T15:11:22.862Z,20.70
2019-03-31T15:13:51.661Z,24.10
2019-03-31T15:17:00.219Z,23.93
2019-03-31T15:19:40.327Z,21.97
2019-03-31T15:22:27.552Z,21.47
2019-03-31T15:27:59.101Z,17.73
2019-03-31T15:30:27.662Z,17.97
2019-03-31T15:32:55.832Z,20.97
2019-03-31T15:35:25.011Z,18.77
2019-03-31T15:41:03.028Z,19.33
2019-03-31T15:43:51.481Z,19.07
2019-03-31T15:49:33.401Z,18.93
2019-03-31T15:52:20.642Z,19.27
2019-03-31T15:54:49.747Z,19.17
2019-03-31T15:57:19.236Z,22.23
2019-03-31T15:59:54.271Z,21.53
2019-03-31T16:02:25.002Z,17.63
2019-03-31T16:05:13.462Z,18.70
2019-03-31T16:16:46.204Z,22.77
2019-03-31T16:19:14.793Z,19.10
2019-03-31T16:22:02.617Z,20.97
2019-03-31T16:25:12.411Z,18.63
2019-03-31T16:28:34.018Z,16.80
2019-03-31T16:31:14.369Z,17.80
2019-03-31T16:34:01.937Z,18.50
2019-03-31T16:36:50.122Z,20.07
2019-03-31T16:39:18.788Z,18.03
2019-03-31T16:44:58.104Z,22.27
2019-03-31T16:48:05.937Z,31.23
2019-03-31T16:59:59.199Z,38.50
2019-03-31T17:06:07.731Z,26.80
2019-03-31T17:08:56.008Z,24.20
2019-03-31T17:11:43.767Z,21.47
2019-03-31T17:17:13.772Z,22.67
2019-03-31T17:23:01.715Z,22.17
2019-03-31T17:25:29.860Z,21.33
2019-03-31T17:28:38.525Z,24.80
2019-03-31T17:31:26.464Z,27.90
2019-03-31T17:36:55.837Z,38.57
2019-03-31T17:39:24.783Z,22.50
2019-03-31T17:42:33.098Z,21.50
2019-03-31T17:45:13.100Z,24.27
2019-03-31T17:47:41.025Z,27.77
2019-03-31T17:50:49.352Z,43.67
2019-03-31T18:05:00.412Z,28.90
2019-03-31T18:07:40.253Z,23.23
2019-03-31T18:10:20.092Z,20.23
2019-03-31T18:19:17.165Z,20.17
2019-03-31T18:21:45.799Z,21.10
2019-03-31T18:24:54.127Z,25.87
2019-03-31T18:27:22.921Z,30.27
2019-03-31T18:29:51.484Z,35.73
2019-03-31T18:32:19.767Z,34.13
2019-03-31T18:34:48.351Z,43.60
2019-03-31T18:37:16.737Z,55.17
2019-03-31T18:39:44.998Z,42.73
2019-03-31T18:42:13.307Z,31.23
2019-03-31T18:44:41.818Z,29.30
2019-03-31T18:47:10.163Z,24.73
2019-03-31T18:49:38.575Z,31.67
2019-03-31T18:52:06.503Z,30.33
2019-03-31T18:54:54.326Z,26.20
2019-03-31T19:00:35.150Z,26.13
2019-03-31T19:03:15.461Z,26.00
2019-03-31T19:12:43.851Z,22.80
2019-03-31T19:15:30.915Z,22.53
2019-03-31T19:21:20.537Z,25.80
2019-03-31T19:24:08.310Z,19.73
2019-03-31T19:30:16.213Z,32.37
2019-03-31T19:36:26.312Z,23.73
2019-03-31T19:42:34.403Z,24.13
2019-03-31T19:45:42.753Z,26.43
2019-03-31T19:48:30.527Z,26.30
2019-03-31T19:51:21.194Z,24.23
2019-03-31T19:54:29.840Z,26.00
2019-03-31T19:59:55.953Z,22.73
2019-03-31T20:02:54.984Z,25.00
2019-03-31T20:06:03.659Z,24.50
2019-03-31T20:09:12.269Z,25.10
2019-03-31T20:11:57.202Z,33.00
2019-03-31T20:17:46.164Z,31.93
2019-03-31T20:20:33.540Z,32.73
2019-03-31T20:23:10.011Z,25.47
2019-03-31T20:25:57.709Z,23.20
2019-03-31T20:29:06.119Z,23.13
2019-03-31T20:31:54.025Z,24.83
2019-03-31T20:34:27.094Z,26.77
2019-03-31T20:37:06.955Z,28.93
2019-03-31T20:42:48.148Z,25.07
2019-03-31T20:45:47.001Z,31.33
2019-03-31T20:51:35.728Z,26.90
2019-03-31T20:54:43.941Z,26.70
2019-03-31T20:57:24.219Z,29.97
2019-03-31T20:59:52.832Z,25.10
2019-03-31T21:02:21.073Z,29.23
2019-03-31T21:04:49.085Z,30.10
2019-03-31T21:07:57.739Z,26.67
2019-03-31T21:13:06.160Z,30.23
2019-03-31T21:16:14.764Z,29.50
2019-03-31T21:22:03.327Z,27.43
2019-03-31T21:24:31.561Z,33.50
2019-03-31T21:30:12.546Z,28.37
2019-03-31T21:33:00.001Z,33.30
2019-03-31T21:38:36.791Z,27.57
2019-03-31T21:50:17.009Z,30.90
2019-03-31T21:58:46.741Z,33.00
2019-03-31T22:04:35.279Z,34.03
2019-03-31T22:07:03.201Z,29.93
2019-03-31T22:12:31.068Z,32.97
2019-03-31T22:14:59.679Z,31.13
2019-03-31T22:17:27.853Z,35.07
2019-03-31T22:19:56.141Z,35.13
2019-03-31T22:22:24.768Z,35.13
2019-03-31T22:24:53.362Z,37.20
2019-03-31T22:33:02.232Z,35.33
2019-03-31T22:35:30.538Z,35.93
2019-03-31T22:38:02.160Z,40.73
2019-03-31T22:40:38.388Z,36.97
2019-03-31T22:43:08.012Z,34.57
2019-03-31T22:46:16.803Z,30.13
2019-03-31T22:51:46.142Z,36.40
2019-03-31T22:54:14.797Z,40.83
2019-03-31T22:56:43.310Z,43.53
2019-03-31T22:59:11.857Z,41.23
2019-03-31T23:01:40.140Z,45.00
2019-03-31T23:07:09.852Z,42.97
2019-03-31T23:09:49.913Z,49.83
2019-03-31T23:12:17.726Z,50.30
2019-03-31T23:15:26.294Z,46.13
2019-03-31T23:20:53.656Z,47.43
2019-03-31T23:23:21.895Z,47.37
2019-03-31T23:26:01.489Z,51.33
2019-03-31T23:33:50.121Z,52.00
2019-03-31T23:36:18.755Z,58.70
2019-03-31T23:38:46.931Z,62.70
2019-03-31T23:41:15.173Z,54.73
2019-03-31T23:43:43.802Z,61.07
2019-03-31T23:46:12.021Z,62.07
2019-03-31T23:48:40.676Z,61.43
2019-03-31T23:51:08.881Z,58.53
2019-03-31T23:53:37.026Z,59.13
2019-03-31T23:56:05.623Z,55.83
